createdAt,value
2023-05-14T00:00:12.179Z,50.49
2023-05-14T00:02:41.042Z,50.73
2023-05-14T00:05:10.702Z,51.02
2023-05-14T00:07:39.588Z,50.84
2023-05-14T00:10:09.953Z,51.17
2023-05-14T00:12:38.765Z,51.04
2023-05-14T00:15:10.325Z,51.08
2023-05-14T00:17:39.144Z,51.31
2023-05-14T00:20:11.623Z,51.26
2023-05-14T00:22:40.973Z,51.08
2023-05-14T00:25:10.717Z,51.20
2023-05-14T00:27:39.505Z,50.65
2023-05-14T00:30:09.672Z,50.90
2023-05-14T00:32:38.469Z,51.05
2023-05-14T00:35:08.700Z,50.90
2023-05-14T00:37:37.493Z,50.97
2023-05-14T00:40:08.816Z,50.93
2023-05-14T00:42:38.379Z,51.41
2023-05-14T00:45:09.372Z,51.82
2023-05-14T00:47:39.795Z,51.63
2023-05-14T00:50:10.670Z,51.62
2023-05-14T00:52:40.666Z,51.67
2023-05-14T00:55:15.999Z,51.53
2023-05-14T00:57:44.920Z,51.65
2023-05-14T01:00:15.330Z,52.10
2023-05-14T01:02:44.248Z,52.05
2023-05-14T01:05:13.127Z,51.94
2023-05-14T01:07:54.009Z,52.41
2023-05-14T01:10:29.086Z,52.94
2023-05-14T01:13:04.455Z,52.78
2023-05-14T01:15:36.426Z,52.70
2023-05-14T01:18:08.287Z,53.13
2023-05-14T01:20:37.220Z,53.50
2023-05-14T01:23:05.981Z,53.36
2023-05-14T01:25:34.864Z,53.19
2023-05-14T01:28:13.113Z,53.44
2023-05-14T01:30:48.607Z,53.41
2023-05-14T01:33:19.105Z,53.08
2023-05-14T01:35:48.544Z,53.35
2023-05-14T01:38:20.427Z,53.77
2023-05-14T01:40:50.710Z,53.89
2023-05-14T01:43:21.000Z,53.93
2023-05-14T01:45:50.088Z,53.82
2023-05-14T01:48:19.039Z,54.09
2023-05-14T01:50:47.746Z,54.39
2023-05-14T01:53:16.417Z,54.89
2023-05-14T01:55:45.105Z,54.58
2023-05-14T01:58:13.876Z,54.27
2023-05-14T02:00:42.730Z,53.89
2023-05-14T02:03:11.308Z,53.85
2023-05-14T02:05:39.967Z,53.73
2023-05-14T02:08:08.664Z,53.93
2023-05-14T02:10:37.402Z,54.18
2023-05-14T02:13:06.200Z,54.95
2023-05-14T02:15:35.026Z,54.94
2023-05-14T02:18:03.961Z,54.80
2023-05-14T02:20:32.732Z,55.07
2023-05-14T02:23:01.250Z,55.06
2023-05-14T02:25:30.121Z,55.41
2023-05-14T02:27:59.020Z,55.89
2023-05-14T02:30:27.800Z,56.00
2023-05-14T02:32:56.887Z,55.96
2023-05-14T02:35:25.739Z,56.12
2023-05-14T02:37:54.466Z,56.42
2023-05-14T02:40:23.263Z,56.01
2023-05-14T02:42:52.367Z,56.14
2023-05-14T02:45:21.658Z,56.39
2023-05-14T02:47:50.324Z,57.13
2023-05-14T02:50:19.218Z,57.12
2023-05-14T02:52:47.952Z,56.89
2023-05-14T02:55:16.734Z,57.10
2023-05-14T02:57:45.357Z,57.62
2023-05-14T03:00:15.176Z,57.43
2023-05-14T03:02:47.233Z,57.44
2023-05-14T03:05:16.566Z,57.79
2023-05-14T03:07:45.437Z,58.13
2023-05-14T03:10:14.246Z,57.60
2023-05-14T03:12:43.147Z,57.30
2023-05-14T03:15:12.839Z,57.03
2023-05-14T03:17:41.692Z,57.49
2023-05-14T03:20:12.888Z,57.57
2023-05-14T03:22:41.982Z,57.69
2023-05-14T03:25:19.743Z,57.95
2023-05-14T03:27:58.583Z,58.23
2023-05-14T03:30:38.255Z,57.96
2023-05-14T03:33:18.368Z,57.02
2023-05-14T03:35:47.285Z,56.31
2023-05-14T03:38:16.349Z,56.25
2023-05-14T03:40:45.494Z,56.39
2023-05-14T03:43:14.167Z,55.65
2023-05-14T03:45:43.006Z,55.34
2023-05-14T03:48:12.001Z,55.28
2023-05-14T03:50:40.782Z,54.79
2023-05-14T03:53:09.673Z,54.53
2023-05-14T03:55:38.801Z,53.91
2023-05-14T03:58:13.570Z,52.92
2023-05-14T04:00:43.414Z,52.72
2023-05-14T04:03:14.107Z,52.80
2023-05-14T04:05:42.860Z,52.32
2023-05-14T04:08:11.597Z,52.02
2023-05-14T04:10:40.328Z,51.84
2023-05-14T04:13:09.106Z,51.81
2023-05-14T04:15:38.874Z,51.62
2023-05-14T04:18:07.846Z,51.41
2023-05-14T04:20:37.061Z,50.95
2023-05-14T04:23:06.058Z,50.54
2023-05-14T04:25:34.810Z,49.86
2023-05-14T04:28:03.686Z,49.27
2023-05-14T04:30:32.228Z,48.25
2023-05-14T04:33:00.806Z,47.81
2023-05-14T04:35:29.594Z,47.63
2023-05-14T04:37:58.283Z,47.32
2023-05-14T04:40:28.286Z,47.00
2023-05-14T04:42:57.120Z,46.88
2023-05-14T04:45:26.116Z,46.63
2023-05-14T04:47:54.869Z,46.49
2023-05-14T04:50:23.944Z,46.35
2023-05-14T04:52:52.834Z,45.99
2023-05-14T04:55:21.763Z,45.77
2023-05-14T04:57:50.478Z,45.32
2023-05-14T05:00:21.472Z,44.87
2023-05-14T05:02:50.539Z,44.51
2023-05-14T05:05:19.568Z,43.88
2023-05-14T05:07:48.392Z,43.41
2023-05-14T05:10:17.080Z,43.41
2023-05-14T05:12:45.875Z,43.50
2023-05-14T05:15:15.058Z,43.37
2023-05-14T05:17:43.911Z,43.23
2023-05-14T05:20:14.159Z,43.08
2023-05-14T05:22:43.085Z,42.89
2023-05-14T05:25:12.512Z,42.47
2023-05-14T05:27:41.329Z,41.88
2023-05-14T05:30:12.975Z,41.53
2023-05-14T05:32:42.562Z,41.50
2023-05-14T05:35:12.426Z,41.42
2023-05-14T05:37:41.302Z,41.75
2023-05-14T05:40:13.612Z,41.97
2023-05-14T05:42:42.560Z,42.22
2023-05-14T05:45:12.234Z,42.39
2023-05-14T05:47:41.046Z,42.47
2023-05-14T05:50:11.739Z,42.46
2023-05-14T05:52:41.099Z,42.42
2023-05-14T05:55:11.042Z,42.05
2023-05-14T05:57:39.786Z,42.13
2023-05-14T06:00:13.241Z,41.87
2023-05-14T06:02:43.162Z,42.11
2023-05-14T06:05:12.252Z,42.12
2023-05-14T06:07:41.448Z,42.00
2023-05-14T06:10:11.515Z,41.76
2023-05-14T06:12:40.574Z,41.36
2023-05-14T06:15:11.729Z,41.09
2023-05-14T06:17:41.108Z,40.71
2023-05-14T06:20:12.549Z,40.80
2023-05-14T06:22:41.629Z,40.40
2023-05-14T06:25:12.542Z,40.37
2023-05-14T06:27:41.509Z,40.67
2023-05-14T06:30:14.374Z,40.10
2023-05-14T06:32:43.346Z,39.15
2023-05-14T06:35:12.059Z,38.74
2023-05-14T06:37:40.883Z,38.27
2023-05-14T06:40:11.829Z,37.90
2023-05-14T06:42:41.314Z,37.91
2023-05-14T06:45:11.763Z,37.64
2023-05-14T06:47:40.924Z,37.28
2023-05-14T06:50:11.259Z,37.23
2023-05-14T06:52:40.691Z,35.38
2023-05-14T06:55:11.621Z,34.84
2023-05-14T06:57:41.014Z,33.94
2023-05-14T07:00:12.119Z,33.37
2023-05-14T07:02:41.820Z,32.83
2023-05-14T07:05:11.816Z,32.08
2023-05-14T07:07:40.981Z,32.16
2023-05-14T07:10:10.922Z,31.90
2023-05-14T07:12:39.746Z,31.80
2023-05-14T07:15:11.851Z,31.84
2023-05-14T07:17:40.647Z,31.24
2023-05-14T07:20:11.448Z,30.68
2023-05-14T07:22:40.291Z,31.00
2023-05-14T07:25:10.985Z,30.03
2023-05-14T07:27:39.824Z,30.11
2023-05-14T07:30:10.379Z,29.74
2023-05-14T07:32:40.007Z,29.75
2023-05-14T07:35:12.031Z,30.09
2023-05-14T07:37:41.003Z,30.33
2023-05-14T07:40:11.188Z,29.89
2023-05-14T07:42:39.968Z,30.08
2023-05-14T07:45:10.953Z,30.36
2023-05-14T07:47:41.078Z,30.11
2023-05-14T07:50:12.255Z,29.41
2023-05-14T07:52:41.115Z,29.58
2023-05-14T07:55:12.753Z,28.91
2023-05-14T07:57:43.729Z,29.30
2023-05-14T08:00:14.371Z,28.96
2023-05-14T08:02:43.647Z,28.53
2023-05-14T08:05:12.645Z,29.33
2023-05-14T08:07:41.522Z,29.64
2023-05-14T08:10:11.367Z,29.88
2023-05-14T08:12:40.231Z,30.25
2023-05-14T08:15:10.853Z,30.05
2023-05-14T08:17:39.645Z,29.91
2023-05-14T08:20:11.547Z,29.58
2023-05-14T08:22:40.385Z,29.82
2023-05-14T08:25:10.424Z,29.63
2023-05-14T08:27:39.719Z,29.19
2023-05-14T08:30:13.360Z,29.33
2023-05-14T08:32:44.930Z,29.49
2023-05-14T08:35:14.675Z,29.57
2023-05-14T08:37:43.362Z,28.72
2023-05-14T08:40:13.638Z,28.81
2023-05-14T08:42:45.664Z,28.85
2023-05-14T08:45:19.379Z,29.03
2023-05-14T08:47:50.901Z,29.38
2023-05-14T08:50:23.054Z,29.11
2023-05-14T08:52:53.365Z,29.38
2023-05-14T08:55:22.300Z,29.90
2023-05-14T08:57:51.377Z,29.95
2023-05-14T09:00:23.108Z,30.06
2023-05-14T09:02:53.527Z,29.89
2023-05-14T09:05:23.949Z,29.69
2023-05-14T09:07:53.156Z,29.99
2023-05-14T09:10:22.624Z,30.18
2023-05-14T09:12:52.258Z,29.97
2023-05-14T09:15:21.950Z,29.56
2023-05-14T09:17:51.339Z,28.42
2023-05-14T09:20:21.299Z,28.95
2023-05-14T09:22:54.535Z,28.92
2023-05-14T09:25:28.044Z,28.96
2023-05-14T09:27:58.877Z,28.86
2023-05-14T09:30:28.257Z,27.65
2023-05-14T09:32:57.075Z,27.34
2023-05-14T09:35:26.371Z,28.10
2023-05-14T09:37:56.240Z,27.60
2023-05-14T09:40:25.624Z,27.29
2023-05-14T09:42:54.717Z,27.51
2023-05-14T09:45:23.903Z,28.00
2023-05-14T09:47:53.061Z,27.21
2023-05-14T09:50:22.187Z,27.35
2023-05-14T09:52:51.471Z,27.58
2023-05-14T09:55:22.196Z,27.94
2023-05-14T09:57:51.025Z,27.85
2023-05-14T10:00:22.282Z,27.89
2023-05-14T10:02:53.017Z,27.96
2023-05-14T10:05:28.743Z,27.76
2023-05-14T10:07:59.425Z,27.85
2023-05-14T10:10:30.717Z,28.01
2023-05-14T10:13:03.963Z,28.51
2023-05-14T10:15:38.261Z,28.57
2023-05-14T10:18:09.893Z,28.76
2023-05-14T10:20:48.814Z,28.45
2023-05-14T10:23:18.407Z,28.63
2023-05-14T10:25:47.237Z,29.01
2023-05-14T10:28:16.350Z,29.28
2023-05-14T10:30:46.891Z,29.10
2023-05-14T10:33:20.356Z,29.67
2023-05-14T10:36:00.623Z,29.52
2023-05-14T10:38:30.683Z,29.44
2023-05-14T10:41:03.145Z,29.28
2023-05-14T10:43:38.402Z,28.85
2023-05-14T10:46:08.436Z,28.89
2023-05-14T10:48:39.428Z,29.43
2023-05-14T10:51:11.113Z,29.61
2023-05-14T10:53:42.008Z,29.71
2023-05-14T10:56:12.596Z,29.48
2023-05-14T10:58:44.095Z,29.61
2023-05-14T11:01:14.319Z,29.56
2023-05-14T11:03:45.817Z,29.16
2023-05-14T11:06:17.505Z,29.43
2023-05-14T11:08:46.746Z,29.67
2023-05-14T11:11:15.858Z,29.01
2023-05-14T11:13:45.525Z,28.81
2023-05-14T11:19:02.654Z,29.08
2023-05-14T11:21:32.252Z,29.01
2023-05-14T11:24:03.351Z,28.89
2023-05-14T11:26:32.945Z,28.87
2023-05-14T11:29:02.115Z,28.99
2023-05-14T11:31:31.223Z,29.41
2023-05-14T11:34:00.778Z,29.42
2023-05-14T11:36:29.550Z,29.02
2023-05-14T11:38:58.530Z,28.64
2023-05-14T11:41:27.982Z,28.52
2023-05-14T11:43:57.256Z,28.94
2023-05-14T11:46:26.220Z,29.59
2023-05-14T11:48:55.262Z,29.62
2023-05-14T11:51:24.410Z,29.46
2023-05-14T11:53:54.348Z,29.43
2023-05-14T11:56:23.797Z,29.43
2023-05-14T11:58:57.414Z,29.00
2023-05-14T12:01:28.262Z,29.35
2023-05-14T12:03:57.586Z,29.52
2023-05-14T12:06:32.571Z,29.46
2023-05-14T12:09:01.726Z,28.54
2023-05-14T12:11:33.123Z,28.21
2023-05-14T12:14:10.760Z,28.26
2023-05-14T12:16:42.133Z,28.21
2023-05-14T12:19:11.919Z,27.90
2023-05-14T12:21:43.221Z,27.86
2023-05-14T12:24:13.782Z,27.78
2023-05-14T12:26:45.641Z,27.78
2023-05-14T12:29:16.440Z,27.44
2023-05-14T12:31:49.481Z,27.64
2023-05-14T12:34:18.468Z,27.52
2023-05-14T12:36:48.243Z,27.68
2023-05-14T12:39:17.087Z,27.97
2023-05-14T12:41:46.273Z,28.09
2023-05-14T12:44:15.460Z,27.86
2023-05-14T12:46:44.726Z,27.86
2023-05-14T12:49:13.973Z,28.37
2023-05-14T12:51:42.949Z,28.62
2023-05-14T12:54:12.187Z,28.60
2023-05-14T12:56:41.468Z,28.53
2023-05-14T12:59:10.339Z,28.57
2023-05-14T13:01:39.403Z,28.23
2023-05-14T13:04:08.838Z,27.95
2023-05-14T13:06:41.523Z,28.03
2023-05-14T13:09:10.852Z,27.76
2023-05-14T13:11:39.780Z,27.69
2023-05-14T13:14:08.772Z,27.82
2023-05-14T13:16:37.861Z,28.21
2023-05-14T13:19:07.284Z,28.16
2023-05-14T13:21:36.218Z,28.35
2023-05-14T13:24:05.567Z,28.32
2023-05-14T13:26:35.367Z,28.46
2023-05-14T13:29:06.407Z,28.80
2023-05-14T13:31:35.659Z,28.57
2023-05-14T13:34:06.530Z,28.90
2023-05-14T13:36:39.195Z,28.27
2023-05-14T13:39:10.463Z,28.37
2023-05-14T13:41:42.673Z,28.33
2023-05-14T13:44:13.621Z,28.51
2023-05-14T13:46:43.875Z,27.84
2023-05-14T13:49:13.178Z,28.44
2023-05-14T13:51:42.227Z,28.92
2023-05-14T13:54:11.374Z,28.97
2023-05-14T13:56:41.092Z,28.86
2023-05-14T13:59:11.091Z,29.36
2023-05-14T14:01:39.853Z,29.35
2023-05-14T14:04:09.175Z,29.27
2023-05-14T14:06:38.430Z,29.54
2023-05-14T14:09:08.805Z,29.58
2023-05-14T14:11:37.654Z,29.54
2023-05-14T14:14:07.403Z,29.49
2023-05-14T14:16:36.551Z,29.45
2023-05-14T14:19:05.445Z,29.45
2023-05-14T14:21:35.324Z,29.93
2023-05-14T14:24:04.413Z,29.68
2023-05-14T14:26:33.309Z,29.57
2023-05-14T14:29:02.194Z,29.70
2023-05-14T14:31:32.369Z,29.75
2023-05-14T14:34:01.353Z,29.71
2023-05-14T14:36:31.239Z,30.06
2023-05-14T14:39:00.189Z,30.03
2023-05-14T14:41:29.369Z,29.92
2023-05-14T14:43:58.799Z,29.93
2023-05-14T14:46:27.848Z,30.07
2023-05-14T14:48:56.968Z,30.00
2023-05-14T14:51:25.978Z,30.06
2023-05-14T14:53:54.870Z,30.25
2023-05-14T14:56:23.670Z,30.43
2023-05-14T14:58:52.562Z,30.33
2023-05-14T15:01:23.162Z,30.50
2023-05-14T15:03:52.360Z,30.77
2023-05-14T15:06:21.785Z,30.99
2023-05-14T15:08:50.592Z,31.27
2023-05-14T15:11:19.378Z,30.83
2023-05-14T15:13:50.769Z,30.63
2023-05-14T15:16:19.569Z,30.46
2023-05-14T15:18:48.750Z,30.65
2023-05-14T15:21:17.768Z,30.83
2023-05-14T15:23:47.412Z,30.78
2023-05-14T15:26:17.024Z,31.02
2023-05-14T15:28:47.125Z,31.21
2023-05-14T15:31:16.284Z,31.09
2023-05-14T15:33:45.378Z,30.85
2023-05-14T15:36:15.134Z,30.87
2023-05-14T15:38:44.460Z,30.98
2023-05-14T15:41:13.353Z,31.22
2023-05-14T15:43:42.489Z,31.48
2023-05-14T15:46:12.342Z,31.57
2023-05-14T15:48:41.895Z,31.43
2023-05-14T15:51:11.082Z,31.50
2023-05-14T15:53:39.823Z,31.68
2023-05-14T15:56:09.167Z,31.84
2023-05-14T15:58:39.036Z,31.76
2023-05-14T16:01:08.129Z,31.67
2023-05-14T16:03:37.251Z,31.51
2023-05-14T16:06:07.294Z,31.34
2023-05-14T16:08:36.315Z,31.35
2023-05-14T16:11:05.780Z,31.60
2023-05-14T16:13:37.714Z,31.79
2023-05-14T16:16:07.396Z,31.73
2023-05-14T16:18:37.701Z,31.82
2023-05-14T16:21:06.582Z,31.92
2023-05-14T16:23:35.383Z,32.04
2023-05-14T16:26:05.599Z,32.33
2023-05-14T16:28:34.532Z,32.77
2023-05-14T16:31:03.965Z,32.96
2023-05-14T16:33:32.987Z,33.08
2023-05-14T16:36:02.441Z,33.21
2023-05-14T16:38:31.282Z,33.32
2023-05-14T16:41:00.288Z,33.22
2023-05-14T16:43:29.137Z,33.10
2023-05-14T16:45:58.163Z,33.22
2023-05-14T16:48:27.270Z,33.29
2023-05-14T16:50:56.254Z,33.43
2023-05-14T16:53:25.175Z,33.41
2023-05-14T16:55:54.414Z,33.55
2023-05-14T16:58:23.540Z,33.54
2023-05-14T17:00:52.703Z,33.65
2023-05-14T17:03:22.013Z,33.63
2023-05-14T17:05:51.915Z,33.85
2023-05-14T17:08:24.424Z,33.94
2023-05-14T17:10:53.217Z,34.11
2023-05-14T17:13:22.207Z,34.49
2023-05-14T17:15:51.334Z,34.69
2023-05-14T17:18:20.478Z,34.81
2023-05-14T17:20:49.646Z,35.00
2023-05-14T17:23:19.988Z,35.14
2023-05-14T17:25:48.714Z,35.22
2023-05-14T17:28:17.378Z,35.59
2023-05-14T17:30:46.315Z,35.80
2023-05-14T17:33:16.188Z,36.17
2023-05-14T17:35:45.429Z,35.93
2023-05-14T17:38:14.380Z,36.04
2023-05-14T17:40:43.612Z,36.32
2023-05-14T17:43:13.141Z,36.49
2023-05-14T17:45:53.195Z,36.60
2023-05-14T17:48:23.549Z,36.59
2023-05-14T17:50:52.316Z,36.74
2023-05-14T17:53:21.531Z,36.86
2023-05-14T17:55:50.440Z,36.91
2023-05-14T17:58:19.602Z,37.02
2023-05-14T18:00:48.392Z,37.22
2023-05-14T18:03:19.871Z,37.19
2023-05-14T18:05:48.853Z,37.06
2023-05-14T18:08:18.023Z,37.05
2023-05-14T18:10:47.118Z,37.24
2023-05-14T18:13:15.921Z,37.25
2023-05-14T18:15:47.715Z,37.33
2023-05-14T18:18:18.284Z,37.37
2023-05-14T18:20:54.269Z,37.34
2023-05-14T18:23:23.138Z,37.37
2023-05-14T18:25:51.941Z,37.32
2023-05-14T18:28:23.874Z,37.46
2023-05-14T18:30:52.954Z,37.71
2023-05-14T18:33:23.596Z,37.76
2023-05-14T18:35:53.135Z,38.17
2023-05-14T18:38:21.988Z,38.54
2023-05-14T18:40:51.393Z,39.08
2023-05-14T18:43:23.941Z,39.39
2023-05-14T18:45:54.588Z,39.19
2023-05-14T18:48:24.273Z,39.31
2023-05-14T18:50:53.166Z,39.58
2023-05-14T18:53:21.841Z,39.72
2023-05-14T18:55:50.895Z,39.99
2023-05-14T18:58:19.657Z,39.99
2023-05-14T19:00:49.226Z,40.15
2023-05-14T19:03:19.189Z,40.24
2023-05-14T19:05:52.666Z,40.26
2023-05-14T19:08:21.811Z,40.31
2023-05-14T19:10:52.654Z,40.34
2023-05-14T19:13:24.040Z,40.69
2023-05-14T19:15:53.305Z,41.01
2023-05-14T19:18:22.387Z,41.05
2023-05-14T19:20:51.553Z,41.24
2023-05-14T19:23:21.113Z,41.22
2023-05-14T19:25:50.520Z,41.10
2023-05-14T19:28:19.532Z,41.09
2023-05-14T19:30:50.540Z,41.34
2023-05-14T19:33:19.629Z,41.26
2023-05-14T19:35:49.264Z,41.38
2023-05-14T19:38:19.526Z,41.65
2023-05-14T19:40:48.975Z,42.01
2023-05-14T19:43:18.258Z,41.98
2023-05-14T19:45:47.135Z,42.06
2023-05-14T19:48:18.625Z,42.34
2023-05-14T19:50:48.417Z,42.52
2023-05-14T19:53:18.181Z,42.68
2023-05-14T19:55:47.189Z,42.65
2023-05-14T19:58:15.749Z,42.95
2023-05-14T20:00:44.873Z,43.13
2023-05-14T20:03:17.969Z,43.19
2023-05-14T20:05:46.760Z,43.07
2023-05-14T20:08:16.312Z,42.97
2023-05-14T20:10:45.139Z,43.10
2023-05-14T20:13:14.614Z,43.37
2023-05-14T20:15:43.459Z,43.50
2023-05-14T20:18:12.377Z,43.43
2023-05-14T20:20:42.300Z,43.58
2023-05-14T20:23:11.493Z,43.70
2023-05-14T20:25:41.185Z,43.75
2023-05-14T20:28:10.030Z,43.79
2023-05-14T20:30:40.203Z,44.05
2023-05-14T20:33:09.223Z,44.01
2023-05-14T20:35:38.177Z,44.15
2023-05-14T20:38:06.966Z,44.35
2023-05-14T20:40:36.695Z,44.44
2023-05-14T20:43:05.616Z,44.77
2023-05-14T20:45:34.290Z,44.69
2023-05-14T20:48:05.749Z,44.87
2023-05-14T20:50:34.574Z,44.65
2023-05-14T20:53:03.224Z,44.75
2023-05-14T20:55:32.090Z,45.01
2023-05-14T20:58:01.096Z,45.22
2023-05-14T21:00:30.100Z,45.41
2023-05-14T21:02:59.694Z,45.27
2023-05-14T21:05:29.356Z,45.50
2023-05-14T21:07:58.453Z,45.32
2023-05-14T21:10:27.529Z,45.13
2023-05-14T21:12:56.412Z,45.46
2023-05-14T21:15:26.918Z,45.23
2023-05-14T21:17:55.971Z,45.54
2023-05-14T21:20:24.799Z,45.24
2023-05-14T21:22:53.658Z,45.26
2023-05-14T21:25:22.752Z,45.43
2023-05-14T21:27:51.745Z,45.54
2023-05-14T21:30:20.800Z,45.80
2023-05-14T21:32:49.449Z,46.20
2023-05-14T21:35:18.263Z,46.28
2023-05-14T21:37:47.039Z,46.48
2023-05-14T21:40:15.880Z,46.22
2023-05-14T21:42:44.505Z,46.45
2023-05-14T21:45:13.359Z,46.27
2023-05-14T21:47:42.207Z,46.46
2023-05-14T21:50:12.713Z,46.86
2023-05-14T21:52:41.252Z,46.83
2023-05-14T21:55:10.887Z,46.69
2023-05-14T21:57:40.185Z,46.72
2023-05-14T22:00:12.641Z,46.58
2023-05-14T22:02:41.340Z,46.51
2023-05-14T22:05:10.523Z,46.19
2023-05-14T22:07:39.048Z,46.04
2023-05-14T22:10:12.118Z,46.22
2023-05-14T22:12:41.868Z,46.28
2023-05-14T22:15:12.872Z,46.02
2023-05-14T22:17:41.909Z,46.34
2023-05-14T22:20:11.293Z,46.41
2023-05-14T22:22:40.056Z,46.35
2023-05-14T22:25:10.042Z,46.34
2023-05-14T22:27:38.834Z,46.09
2023-05-14T22:30:09.578Z,45.83
2023-05-14T22:32:38.327Z,45.74
2023-05-14T22:35:07.999Z,45.97
2023-05-14T22:37:36.783Z,45.83
2023-05-14T22:40:08.751Z,45.70
2023-05-14T22:42:37.458Z,46.03
2023-05-14T22:45:08.667Z,46.50
2023-05-14T22:47:37.450Z,46.22
2023-05-14T22:50:11.033Z,46.25
2023-05-14T22:52:40.508Z,46.20
2023-05-14T22:55:11.153Z,46.36
2023-05-14T22:57:40.046Z,46.48
2023-05-14T23:00:11.779Z,46.71
2023-05-14T23:02:40.693Z,46.47
2023-05-14T23:05:10.981Z,46.80
2023-05-14T23:07:39.796Z,46.65
2023-05-14T23:10:10.121Z,46.31
2023-05-14T23:12:38.962Z,46.29
2023-05-14T23:15:09.136Z,46.06
2023-05-14T23:17:38.762Z,46.16
2023-05-14T23:20:10.887Z,46.01
2023-05-14T23:22:39.550Z,46.08
2023-05-14T23:25:10.075Z,46.04
2023-05-14T23:27:39.772Z,45.99
2023-05-14T23:30:11.029Z,45.78
2023-05-14T23:32:39.747Z,45.57
2023-05-14T23:35:09.808Z,45.40
2023-05-14T23:37:42.191Z,45.63
2023-05-14T23:40:12.688Z,45.43
2023-05-14T23:42:42.466Z,45.63
2023-05-14T23:45:12.612Z,45.60
2023-05-14T23:47:41.703Z,45.52
2023-05-14T23:50:11.161Z,45.54
2023-05-14T23:52:39.890Z,45.58
2023-05-14T23:55:10.271Z,45.42
2023-05-14T23:57:39.077Z,45.04
